Time;durP1;ratioP1;P1;durP2;ratioP2;P2;SDS_P1;SDS_P2;PMS_P1;PMS_P2;Temp;Humidity;BMP_temperature;BMP_pressure;BME280_temperature;BME280_humidity;BME280_pressure;Samples;Min_cycle;Max_cycle;Signal;HPM_P1;HPM_P2
2020/12/25 00:06:10;;;;;;;5.50;1.85;;;1.50;99.90;;;;;;20646891;28;20104;-61
2020/12/25 00:16:12;;;;;;;6.60;2.10;;;1.20;99.90;;;;;;20744190;28;20050;-61
2020/12/25 00:26:25;;;;;;;4.57;1.92;;;1.10;99.90;;;;;;20743885;28;20550;-62
2020/12/25 00:36:31;;;;;;;3.85;1.88;;;1.00;99.90;;;;;;20680908;28;20050;-61
2020/12/25 00:46:33;;;;;;;3.17;1.67;;;0.90;99.90;;;;;;20643595;28;20093;-61
2020/12/25 00:56:35;;;;;;;6.45;2.20;;;0.80;99.90;;;;;;20660089;28;20050;-63
2020/12/25 01:06:37;;;;;;;3.67;1.98;;;0.70;99.90;;;;;;20643138;28;20508;-62
2020/12/25 01:16:39;;;;;;;4.30;2.03;;;0.70;99.90;;;;;;20663328;28;20097;-61
2020/12/25 01:26:41;;;;;;;4.63;2.20;;;0.70;99.90;;;;;;20676909;28;20050;-61
2020/12/25 01:36:42;;;;;;;5.82;2.45;;;0.60;99.90;;;;;;20678089;28;20069;-62
2020/12/25 01:46:44;;;;;;;3.53;1.42;;;0.50;99.90;;;;;;20668906;28;20039;-61
2020/12/25 01:56:46;;;;;;;6.15;2.90;;;0.50;99.90;;;;;;20710302;28;20089;-62
2020/12/25 02:06:49;;;;;;;4.43;1.75;;;0.50;99.90;;;;;;20754125;28;20132;-61
2020/12/25 02:16:51;;;;;;;3.80;1.73;;;0.50;99.90;;;;;;20754286;28;20034;-61
2020/12/25 02:26:53;;;;;;;5.03;2.60;;;0.70;99.90;;;;;;20753361;28;20041;-61
2020/12/25 02:36:55;;;;;;;4.00;1.90;;;1.00;99.90;;;;;;20686171;28;20038;-61
2020/12/25 02:46:57;;;;;;;4.32;2.38;;;1.20;99.90;;;;;;20670327;28;20105;-61
2020/12/25 02:56:59;;;;;;;4.57;2.10;;;1.30;99.90;;;;;;20636242;28;20096;-61
2020/12/25 03:07:01;;;;;;;5.97;3.97;;;1.30;99.90;;;;;;20675709;28;20562;-61
2020/12/25 03:17:03;;;;;;;6.10;2.97;;;1.60;99.90;;;;;;20749381;28;20476;-61
2020/12/25 03:27:05;;;;;;;3.55;1.73;;;1.60;99.90;;;;;;20748939;28;20095;-61
2020/12/25 03:37:07;;;;;;;4.45;2.35;;;1.40;99.90;;;;;;20747594;28;20042;-60
2020/12/25 03:47:09;;;;;;;6.68;3.30;;;1.40;99.90;;;;;;20745381;28;20563;-62
2020/12/25 03:57:11;;;;;;;3.10;2.00;;;1.40;99.90;;;;;;20706766;28;20488;-61
2020/12/25 04:07:13;;;;;;;2.70;1.30;;;1.30;99.90;;;;;;20663690;28;20050;-62
2020/12/25 04:17:15;;;;;;;2.75;1.50;;;1.10;99.90;;;;;;20664119;28;20038;-61
2020/12/25 04:27:17;;;;;;;3.53;1.60;;;1.10;99.90;;;;;;20663017;28;20451;-61
2020/12/25 04:37:19;;;;;;;3.00;1.52;;;1.30;99.90;;;;;;20644751;28;20062;-62
2020/12/25 04:47:21;;;;;;;1.90;1.33;;;1.30;99.90;;;;;;20661128;28;20089;-61
2020/12/25 04:57:23;;;;;;;1.50;1.10;;;1.40;99.90;;;;;;20643799;28;20038;-65
2020/12/25 05:07:27;;;;;;;2.15;1.40;;;1.40;99.90;;;;;;20672086;28;20058;-61
2020/12/25 05:17:31;;;;;;;2.13;1.20;;;1.30;99.90;;;;;;20724267;28;20429;-62
2020/12/25 05:27:34;;;;;;;2.08;0.82;;;1.10;99.90;;;;;;20741711;28;20034;-61
2020/12/25 05:37:37;;;;;;;1.50;0.80;;;1.30;99.90;;;;;;20741190;28;20061;-62
2020/12/25 05:47:39;;;;;;;1.08;0.70;;;1.50;99.90;;;;;;20740704;28;20404;-61
2020/12/25 05:57:48;;;;;;;1.35;0.93;;;1.70;99.90;;;;;;20723021;28;20066;-61
2020/12/25 06:07:52;;;;;;;1.27;0.80;;;1.90;99.90;;;;;;20733667;28;20058;-62
2020/12/25 06:18:40;;;;;;;1.30;0.88;;;2.00;99.90;;;;;;20673021;28;20161;-62
2020/12/25 06:28:42;;;;;;;1.35;0.80;;;1.90;99.90;;;;;;20673006;28;20030;-62
2020/12/25 06:38:44;;;;;;;3.25;0.73;;;1.60;99.90;;;;;;20670792;28;20038;-62
2020/12/25 06:48:45;;;;;;;3.72;2.10;;;1.80;99.90;;;;;;20670414;28;20042;-62
2020/12/25 06:58:54;;;;;;;5.20;3.47;;;1.80;99.90;;;;;;20652365;28;20031;-62
2020/12/25 07:09:08;;;;;;;4.53;3.00;;;1.50;99.90;;;;;;20691903;28;20058;-62
2020/12/25 07:19:10;;;;;;;2.35;1.45;;;1.30;99.90;;;;;;20748792;28;20049;-62
2020/12/25 07:29:15;;;;;;;0.90;0.65;;;1.30;99.90;;;;;;20748666;28;20034;-63
2020/12/25 07:39:17;;;;;;;0.88;0.50;;;1.90;99.90;;;;;;20748201;28;20042;-62
2020/12/25 07:49:19;;;;;;;0.73;0.45;;;2.40;99.90;;;;;;20746752;28;20088;-61
2020/12/25 07:59:23;;;;;;;1.45;0.57;;;2.60;99.90;;;;;;20745986;28;20038;-63
2020/12/25 08:09:27;;;;;;;0.73;0.40;;;2.50;99.90;;;;;;20717916;28;20046;-62
2020/12/25 08:19:35;;;;;;;0.70;0.60;;;2.40;99.90;;;;;;20646279;28;20393;-64
2020/12/25 08:29:40;;;;;;;1.40;0.90;;;2.10;99.90;;;;;;20662753;28;20401;-61
2020/12/25 08:39:41;;;;;;;1.38;0.90;;;2.00;99.90;;;;;;20662553;28;20039;-62
2020/12/25 08:49:53;;;;;;;1.67;1.13;;;1.90;99.90;;;;;;20661911;28;20117;-61
2020/12/25 09:00:07;;;;;;;1.70;1.00;;;1.80;99.90;;;;;;20643738;28;20488;-61
2020/12/25 09:10:09;;;;;;;2.03;1.30;;;1.70;99.90;;;;;;20611578;28;20104;-60
2020/12/25 09:20:11;;;;;;;2.38;1.38;;;1.40;99.90;;;;;;20661641;28;20061;-60
2020/12/25 09:30:12;;;;;;;2.08;1.42;;;1.20;99.90;;;;;;20660574;28;20535;-59
2020/12/25 09:40:14;;;;;;;1.83;1.10;;;1.10;99.90;;;;;;20665251;28;20050;-60
2020/12/25 09:50:16;;;;;;;1.65;1.10;;;0.90;99.90;;;;;;20675413;28;20042;-60
2020/12/25 10:00:18;;;;;;;1.63;0.50;;;0.60;99.90;;;;;;20674791;28;20100;-60
2020/12/25 10:10:21;;;;;;;5.95;0.60;;;0.40;99.90;;;;;;20637128;28;20101;-60
2020/12/25 10:20:23;;;;;;;0.50;0.20;;;0.30;99.90;;;;;;20592113;28;20042;-60
2020/12/25 10:30:26;;;;;;;0.35;0.30;;;0.20;99.90;;;;;;20591731;28;20046;-61
2020/12/25 10:40:27;;;;;;;0.60;0.30;;;0.10;99.90;;;;;;20590965;28;20043;-60
2020/12/25 10:50:29;;;;;;;0.65;0.30;;;0.00;99.90;;;;;;20589157;28;20082;-60
2020/12/25 11:00:31;;;;;;;0.35;0.22;;;0.00;99.90;;;;;;20589423;28;20051;-60
2020/12/25 11:10:33;;;;;;;21.33;0.70;;;0.00;99.90;;;;;;20623003;28;20062;-61
2020/12/25 11:20:35;;;;;;;0.22;0.15;;;-0.40;99.90;;;;;;20668049;28;20070;-62
2020/12/25 11:30:37;;;;;;;46.25;2.67;;;-0.70;99.90;;;;;;20667939;28;20100;-63
2020/12/25 11:40:39;;;;;;;2.33;0.30;;;-0.70;99.90;;;;;;20666323;28;20038;-62
2020/12/25 11:50:41;;;;;;;11.85;0.45;;;-0.80;99.90;;;;;;20665717;28;20096;-63
2020/12/25 12:00:43;;;;;;;0.30;0.10;;;-1.00;99.90;;;;;;20664074;28;20038;-62
2020/12/25 12:10:45;;;;;;;0.35;0.10;;;-1.00;99.90;;;;;;20973281;23;20057;-63
2020/12/25 12:20:47;;;;;;;0.15;0.10;;;-0.80;99.90;;;;;;20826305;28;20041;-63
2020/12/25 12:30:49;;;;;;;0.20;0.10;;;-0.90;99.90;;;;;;20825438;28;20049;-63
2020/12/25 12:40:52;;;;;;;31.45;0.63;;;-0.90;99.90;;;;;;20824886;28;20407;-63
2020/12/25 12:50:54;;;;;;;0.08;0.03;;;-1.00;99.90;;;;;;20823763;28;20038;-63
2020/12/25 13:00:57;;;;;;;24.02;1.20;;;-1.20;99.90;;;;;;20824201;28;20041;-62
2020/12/25 13:10:59;;;;;;;6.22;0.10;;;-1.40;99.90;;;;;;20824931;28;20062;-63
2020/12/25 13:21:01;;;;;;;0.57;0.10;;;-1.50;99.90;;;;;;20839150;28;20462;-63
2020/12/25 13:31:03;;;;;;;0.10;0.00;;;-1.50;99.90;;;;;;20839510;28;20068;-63
2020/12/25 13:41:17;;;;;;;1.23;0.10;;;-1.60;99.90;;;;;;20837952;28;20063;-62
2020/12/25 13:51:21;;;;;;;0.95;0.10;;;-1.60;99.90;;;;;;20837963;28;20372;-63
2020/12/25 14:01:24;;;;;;;16.15;0.43;;;-1.50;99.90;;;;;;20837040;28;20123;-63
2020/12/25 14:11:26;;;;;;;3.88;0.10;;;-1.40;99.90;;;;;;20836153;28;20049;-63
2020/12/25 14:21:33;;;;;;;0.22;0.00;;;-1.30;99.90;;;;;;20836013;28;20049;-63
2020/12/25 14:31:35;;;;;;;0.30;0.00;;;-1.30;99.90;;;;;;20834553;28;20095;-64
2020/12/25 14:41:37;;;;;;;0.10;0.00;;;-1.20;99.90;;;;;;20836112;28;20091;-64
2020/12/25 14:51:38;;;;;;;0.00;0.00;;;-1.10;99.90;;;;;;20834902;28;20096;-64
2020/12/25 15:01:40;;;;;;;1.45;0.00;;;-1.30;99.90;;;;;;20833652;28;20103;-64
2020/12/25 15:11:42;;;;;;;0.20;0.03;;;-1.50;99.90;;;;;;20831714;28;20057;-64
2020/12/25 15:21:44;;;;;;;0.10;0.00;;;-1.50;99.90;;;;;;20830576;28;20468;-64
2020/12/25 15:31:46;;;;;;;0.10;0.00;;;-1.50;99.90;;;;;;20831862;28;20048;-64
2020/12/25 15:41:49;;;;;;;0.00;0.00;;;-1.60;99.90;;;;;;20830487;28;20042;-64
2020/12/25 15:51:55;;;;;;;0.08;0.00;;;-1.60;99.90;;;;;;20829013;28;20099;-64
2020/12/25 16:01:57;;;;;;;0.13;0.00;;;-1.60;99.90;;;;;;20828960;28;20050;-64
2020/12/25 16:11:59;;;;;;;7.47;0.70;;;-1.70;99.90;;;;;;20828149;28;20033;-63
2020/12/25 16:22:02;;;;;;;6.55;0.30;;;-1.90;99.90;;;;;;20826077;28;20410;-63
2020/12/25 16:32:05;;;;;;;1.75;0.28;;;-2.00;99.90;;;;;;20826686;28;20045;-63
2020/12/25 16:42:09;;;;;;;0.50;0.20;;;-2.00;99.90;;;;;;20825430;28;20068;-63
2020/12/25 16:52:12;;;;;;;3.42;0.10;;;-2.10;99.90;;;;;;20825128;28;20034;-65
2020/12/25 17:02:14;;;;;;;9.57;0.68;;;-2.10;99.90;;;;;;20840046;28;20079;-63
2020/12/25 17:12:17;;;;;;;2.40;0.08;;;-2.10;99.90;;;;;;20823599;28;20037;-63
2020/12/25 17:22:23;;;;;;;0.57;0.10;;;-2.20;99.90;;;;;;20823158;28;20050;-63
2020/12/25 17:32:26;;;;;;;2.03;0.00;;;-2.10;99.90;;;;;;20824835;28;20046;-63
2020/12/25 17:42:29;;;;;;;0.20;0.00;;;-2.10;99.90;;;;;;20822684;28;20539;-63
2020/12/25 17:52:36;;;;;;;4.88;0.35;;;-2.10;99.90;;;;;;20823923;28;20050;-63
2020/12/25 18:02:39;;;;;;;0.10;0.00;;;-2.10;99.90;;;;;;20830945;28;20376;-63
2020/12/25 18:12:44;;;;;;;3.05;0.05;;;-1.90;99.90;;;;;;20852614;28;20071;-63
2020/12/25 18:22:46;;;;;;;0.20;0.00;;;-1.80;99.90;;;;;;20835034;28;20119;-63
2020/12/25 18:32:48;;;;;;;0.38;0.00;;;-1.80;99.90;;;;;;20835328;28;20092;-64
2020/12/25 18:42:50;;;;;;;1.02;0.00;;;-1.80;99.90;;;;;;20834075;28;20054;-64
2020/12/25 18:52:53;;;;;;;0.77;0.00;;;-1.90;99.90;;;;;;20835123;28;20037;-64
2020/12/25 19:02:55;;;;;;;0.50;0.10;;;-1.90;99.90;;;;;;20833226;28;20049;-63
2020/12/25 19:12:57;;;;;;;0.43;0.10;;;-1.90;99.90;;;;;;20832289;28;20376;-64
2020/12/25 19:22:59;;;;;;;0.50;0.05;;;-2.00;99.90;;;;;;20833089;28;20045;-63
2020/12/25 19:33:03;;;;;;;2.45;0.10;;;-2.10;99.90;;;;;;20831326;28;20041;-63
2020/12/25 19:43:05;;;;;;;1.20;0.10;;;-2.20;99.90;;;;;;20829093;28;20091;-63
2020/12/25 19:53:09;;;;;;;19.80;0.28;;;-2.20;99.90;;;;;;20829029;28;20103;-64
2020/12/25 20:03:11;;;;;;;0.20;0.10;;;-2.30;99.90;;;;;;20828291;28;20053;-63
2020/12/25 20:13:14;;;;;;;0.63;0.20;;;-2.30;99.90;;;;;;20827638;28;20057;-63
2020/12/25 20:23:17;;;;;;;0.20;0.00;;;-2.30;99.90;;;;;;20825345;28;20317;-64
2020/12/25 20:33:19;;;;;;;0.65;0.08;;;-2.30;99.90;;;;;;20826139;28;20042;-64
2020/12/25 20:43:25;;;;;;;0.10;0.00;;;-2.10;99.90;;;;;;20825059;28;20103;-64
2020/12/25 20:53:30;;;;;;;0.00;0.00;;;-2.00;99.90;;;;;;20826154;28;20446;-64
2020/12/25 21:03:47;;;;;;;1.20;0.00;;;-2.00;99.90;;;;;;20823623;28;20061;-64
2020/12/25 21:13:52;;;;;;;0.05;0.00;;;-1.70;99.90;;;;;;20823078;28;20503;-64
2020/12/25 21:23:55;;;;;;;1.15;0.00;;;-1.50;99.90;;;;;;20822729;28;20407;-64
2020/12/25 21:33:58;;;;;;;0.00;0.00;;;-1.30;99.90;;;;;;20827140;28;20479;-64
2020/12/25 21:44:01;;;;;;;0.20;0.08;;;-1.30;99.90;;;;;;20837872;28;20503;-64
2020/12/25 21:54:06;;;;;;;1.88;0.00;;;-1.20;99.90;;;;;;20838360;28;20046;-64
2020/12/25 22:04:09;;;;;;;0.50;0.00;;;-1.40;99.90;;;;;;20838331;28;20053;-64
2020/12/25 22:14:12;;;;;;;0.00;0.00;;;-1.40;99.90;;;;;;20754431;28;20069;-64
2020/12/25 22:24:19;;;;;;;0.10;0.05;;;-1.50;99.90;;;;;;20752784;28;20045;-64
2020/12/25 22:34:22;;;;;;;0.10;0.10;;;-1.60;99.90;;;;;;20753220;28;20476;-65
2020/12/25 22:44:24;;;;;;;0.10;0.00;;;-1.60;99.90;;;;;;20767802;28;20034;-65
2020/12/25 22:54:26;;;;;;;0.08;0.00;;;-1.70;99.90;;;;;;20751323;28;20057;-65
2020/12/25 23:04:28;;;;;;;0.05;0.00;;;-1.60;99.90;;;;;;20752104;28;20054;-65
2020/12/25 23:14:31;;;;;;;0.13;0.00;;;-1.60;99.90;;;;;;20820932;28;20103;-64
2020/12/25 23:24:33;;;;;;;0.10;0.00;;;-1.60;99.90;;;;;;20832163;28;20095;-65
2020/12/25 23:34:34;;;;;;;0.05;0.00;;;-1.70;99.90;;;;;;20830004;28;20037;-65
2020/12/25 23:44:37;;;;;;;0.10;0.00;;;-1.80;99.90;;;;;;20830744;28;20103;-64
2020/12/25 23:54:39;;;;;;;0.17;0.10;;;-1.70;99.90;;;;;;20829642;28;20060;-64
